sensor_id;sensor_type;location;lat;lon;timestamp;P1;durP1;ratioP1;P2;durP2;ratioP2
5819;SDS011;2936;47.348;9.640;2023-02-28T00:01:19;12.50;;;10.20;;
5819;SDS011;2936;47.348;9.640;2023-02-28T00:03:46;13.85;;;10.10;;
5819;SDS011;2936;47.348;9.640;2023-02-28T00:06:15;12.13;;;9.45;;
5819;SDS011;2936;47.348;9.640;2023-02-28T00:08:42;10.25;;;8.75;;
5819;SDS011;2936;47.348;9.640;2023-02-28T00:11:11;10.02;;;8.23;;
5819;SDS011;2936;47.348;9.640;2023-02-28T00:13:39;13.40;;;9.75;;
5819;SDS011;2936;47.348;9.640;2023-02-28T00:16:08;9.93;;;8.90;;
5819;SDS011;2936;47.348;9.640;2023-02-28T00:18:35;10.63;;;9.30;;
5819;SDS011;2936;47.348;9.640;2023-02-28T00:21:03;9.85;;;8.82;;
5819;SDS011;2936;47.348;9.640;2023-02-28T00:23:32;9.88;;;8.52;;
5819;SDS011;2936;47.348;9.640;2023-02-28T00:26:00;17.23;;;9.48;;
5819;SDS011;2936;47.348;9.640;2023-02-28T00:28:27;10.23;;;9.20;;
5819;SDS011;2936;47.348;9.640;2023-02-28T00:30:54;15.80;;;10.30;;
5819;SDS011;2936;47.348;9.640;2023-02-28T00:33:22;11.68;;;9.00;;
5819;SDS011;2936;47.348;9.640;2023-02-28T00:35:49;10.95;;;9.85;;
5819;SDS011;2936;47.348;9.640;2023-02-28T00:38:17;11.48;;;9.63;;
5819;SDS011;2936;47.348;9.640;2023-02-28T00:40:45;15.73;;;10.45;;
5819;SDS011;2936;47.348;9.640;2023-02-28T00:43:13;9.15;;;8.02;;
5819;SDS011;2936;47.348;9.640;2023-02-28T00:45:40;9.25;;;8.35;;
5819;SDS011;2936;47.348;9.640;2023-02-28T00:48:07;11.40;;;9.15;;
5819;SDS011;2936;47.348;9.640;2023-02-28T00:50:35;9.85;;;8.93;;
5819;SDS011;2936;47.348;9.640;2023-02-28T00:53:02;11.93;;;10.15;;
5819;SDS011;2936;47.348;9.640;2023-02-28T00:55:30;13.02;;;10.18;;
5819;SDS011;2936;47.348;9.640;2023-02-28T00:57:59;14.68;;;9.93;;
5819;SDS011;2936;47.348;9.640;2023-02-28T01:00:26;10.27;;;8.68;;
5819;SDS011;2936;47.348;9.640;2023-02-28T01:02:53;10.95;;;9.60;;
5819;SDS011;2936;47.348;9.640;2023-02-28T01:05:21;10.90;;;9.70;;
5819;SDS011;2936;47.348;9.640;2023-02-28T01:07:48;11.15;;;9.70;;
5819;SDS011;2936;47.348;9.640;2023-02-28T01:10:16;12.10;;;10.10;;
5819;SDS011;2936;47.348;9.640;2023-02-28T01:12:43;12.27;;;9.75;;
5819;SDS011;2936;47.348;9.640;2023-02-28T01:15:12;13.55;;;8.85;;
5819;SDS011;2936;47.348;9.640;2023-02-28T01:17:39;12.48;;;9.20;;
5819;SDS011;2936;47.348;9.640;2023-02-28T01:20:07;12.63;;;9.75;;
5819;SDS011;2936;47.348;9.640;2023-02-28T01:22:35;9.65;;;8.75;;
5819;SDS011;2936;47.348;9.640;2023-02-28T01:25:03;11.13;;;9.85;;
5819;SDS011;2936;47.348;9.640;2023-02-28T01:27:31;10.82;;;9.52;;
5819;SDS011;2936;47.348;9.640;2023-02-28T01:29:58;11.77;;;9.98;;
5819;SDS011;2936;47.348;9.640;2023-02-28T01:32:27;10.70;;;9.50;;
5819;SDS011;2936;47.348;9.640;2023-02-28T01:34:54;17.13;;;10.20;;
5819;SDS011;2936;47.348;9.640;2023-02-28T01:37:21;10.68;;;9.15;;
5819;SDS011;2936;47.348;9.640;2023-02-28T01:39:49;12.15;;;10.00;;
5819;SDS011;2936;47.348;9.640;2023-02-28T01:42:16;13.63;;;9.70;;
5819;SDS011;2936;47.348;9.640;2023-02-28T01:45:00;16.40;;;9.80;;
5819;SDS011;2936;47.348;9.640;2023-02-28T01:47:30;10.70;;;9.52;;
5819;SDS011;2936;47.348;9.640;2023-02-28T01:49:58;11.77;;;8.75;;
5819;SDS011;2936;47.348;9.640;2023-02-28T01:52:27;10.88;;;9.38;;
5819;SDS011;2936;47.348;9.640;2023-02-28T01:54:55;13.82;;;10.32;;
5819;SDS011;2936;47.348;9.640;2023-02-28T01:57:24;13.27;;;10.20;;
5819;SDS011;2936;47.348;9.640;2023-02-28T01:59:53;14.20;;;10.45;;
5819;SDS011;2936;47.348;9.640;2023-02-28T02:02:21;17.45;;;10.55;;
5819;SDS011;2936;47.348;9.640;2023-02-28T02:04:51;14.65;;;10.20;;
5819;SDS011;2936;47.348;9.640;2023-02-28T02:07:20;15.38;;;10.93;;
5819;SDS011;2936;47.348;9.640;2023-02-28T02:09:48;11.90;;;9.65;;
5819;SDS011;2936;47.348;9.640;2023-02-28T02:12:19;10.30;;;9.30;;
5819;SDS011;2936;47.348;9.640;2023-02-28T02:14:54;22.08;;;10.45;;
5819;SDS011;2936;47.348;9.640;2023-02-28T02:17:26;12.65;;;9.50;;
5819;SDS011;2936;47.348;9.640;2023-02-28T02:25:35;13.13;;;9.60;;
5819;SDS011;2936;47.348;9.640;2023-02-28T02:34:01;16.20;;;10.73;;
5819;SDS011;2936;47.348;9.640;2023-02-28T02:36:32;13.77;;;10.35;;
5819;SDS011;2936;47.348;9.640;2023-02-28T02:39:02;19.05;;;10.70;;
5819;SDS011;2936;47.348;9.640;2023-02-28T02:41:33;13.05;;;9.48;;
5819;SDS011;2936;47.348;9.640;2023-02-28T02:44:02;17.85;;;10.55;;
5819;SDS011;2936;47.348;9.640;2023-02-28T02:46:32;11.40;;;9.60;;
5819;SDS011;2936;47.348;9.640;2023-02-28T02:49:03;14.85;;;11.30;;
5819;SDS011;2936;47.348;9.640;2023-02-28T02:51:32;13.02;;;9.70;;
5819;SDS011;2936;47.348;9.640;2023-02-28T02:54:02;11.80;;;9.82;;
5819;SDS011;2936;47.348;9.640;2023-02-28T02:56:31;15.52;;;10.50;;
5819;SDS011;2936;47.348;9.640;2023-02-28T02:59:01;13.50;;;10.32;;
5819;SDS011;2936;47.348;9.640;2023-02-28T03:01:30;13.90;;;10.52;;
5819;SDS011;2936;47.348;9.640;2023-02-28T03:03:59;13.52;;;10.32;;
5819;SDS011;2936;47.348;9.640;2023-02-28T03:06:29;14.65;;;9.85;;
5819;SDS011;2936;47.348;9.640;2023-02-28T03:08:56;30.45;;;10.50;;
5819;SDS011;2936;47.348;9.640;2023-02-28T03:11:24;11.20;;;9.77;;
5819;SDS011;2936;47.348;9.640;2023-02-28T03:13:57;14.73;;;10.10;;
5819;SDS011;2936;47.348;9.640;2023-02-28T03:19:17;18.67;;;11.57;;
5819;SDS011;2936;47.348;9.640;2023-02-28T03:21:52;13.15;;;9.88;;
5819;SDS011;2936;47.348;9.640;2023-02-28T03:24:22;15.95;;;10.98;;
5819;SDS011;2936;47.348;9.640;2023-02-28T03:26:53;22.83;;;11.05;;
5819;SDS011;2936;47.348;9.640;2023-02-28T03:29:26;19.42;;;11.15;;
5819;SDS011;2936;47.348;9.640;2023-02-28T03:31:57;11.65;;;10.18;;
5819;SDS011;2936;47.348;9.640;2023-02-28T03:34:26;14.48;;;10.68;;
5819;SDS011;2936;47.348;9.640;2023-02-28T03:36:57;12.10;;;9.60;;
5819;SDS011;2936;47.348;9.640;2023-02-28T03:39:28;13.30;;;10.88;;
5819;SDS011;2936;47.348;9.640;2023-02-28T03:41:59;18.70;;;10.95;;
5819;SDS011;2936;47.348;9.640;2023-02-28T03:44:28;12.10;;;10.13;;
5819;SDS011;2936;47.348;9.640;2023-02-28T03:46:57;16.33;;;10.35;;
5819;SDS011;2936;47.348;9.640;2023-02-28T03:49:26;14.00;;;11.13;;
5819;SDS011;2936;47.348;9.640;2023-02-28T03:51:57;14.73;;;10.82;;
5819;SDS011;2936;47.348;9.640;2023-02-28T03:54:27;15.00;;;10.68;;
5819;SDS011;2936;47.348;9.640;2023-02-28T03:56:59;16.30;;;11.05;;
5819;SDS011;2936;47.348;9.640;2023-02-28T03:59:27;13.00;;;9.98;;
5819;SDS011;2936;47.348;9.640;2023-02-28T04:01:55;14.50;;;11.15;;
5819;SDS011;2936;47.348;9.640;2023-02-28T04:04:24;12.45;;;9.90;;
5819;SDS011;2936;47.348;9.640;2023-02-28T04:06:52;18.20;;;11.68;;
5819;SDS011;2936;47.348;9.640;2023-02-28T04:09:21;16.13;;;10.27;;
5819;SDS011;2936;47.348;9.640;2023-02-28T04:11:49;12.75;;;10.18;;
5819;SDS011;2936;47.348;9.640;2023-02-28T04:14:18;13.73;;;11.02;;
5819;SDS011;2936;47.348;9.640;2023-02-28T04:16:45;12.60;;;10.82;;
5819;SDS011;2936;47.348;9.640;2023-02-28T04:19:13;15.90;;;10.70;;
5819;SDS011;2936;47.348;9.640;2023-02-28T04:21:41;15.48;;;10.40;;
5819;SDS011;2936;47.348;9.640;2023-02-28T04:24:09;15.95;;;10.45;;
5819;SDS011;2936;47.348;9.640;2023-02-28T04:26:40;14.13;;;10.20;;
5819;SDS011;2936;47.348;9.640;2023-02-28T04:29:09;15.05;;;9.75;;
5819;SDS011;2936;47.348;9.640;2023-02-28T04:31:36;10.23;;;9.23;;
5819;SDS011;2936;47.348;9.640;2023-02-28T04:34:04;14.07;;;10.77;;
5819;SDS011;2936;47.348;9.640;2023-02-28T04:36:31;22.23;;;12.40;;
5819;SDS011;2936;47.348;9.640;2023-02-28T04:38:59;18.02;;;12.13;;
5819;SDS011;2936;47.348;9.640;2023-02-28T04:41:26;20.48;;;13.05;;
5819;SDS011;2936;47.348;9.640;2023-02-28T04:43:55;18.60;;;12.35;;
5819;SDS011;2936;47.348;9.640;2023-02-28T04:46:22;15.52;;;11.02;;
5819;SDS011;2936;47.348;9.640;2023-02-28T04:48:49;18.80;;;11.50;;
5819;SDS011;2936;47.348;9.640;2023-02-28T04:51:17;13.75;;;10.98;;
5819;SDS011;2936;47.348;9.640;2023-02-28T04:53:45;12.23;;;10.93;;
5819;SDS011;2936;47.348;9.640;2023-02-28T04:56:13;15.02;;;10.70;;
5819;SDS011;2936;47.348;9.640;2023-02-28T04:58:41;22.63;;;11.30;;
5819;SDS011;2936;47.348;9.640;2023-02-28T05:01:17;18.83;;;11.48;;
5819;SDS011;2936;47.348;9.640;2023-02-28T05:03:44;13.65;;;10.98;;
5819;SDS011;2936;47.348;9.640;2023-02-28T05:06:12;11.57;;;10.18;;
5819;SDS011;2936;47.348;9.640;2023-02-28T05:08:39;15.02;;;11.48;;
5819;SDS011;2936;47.348;9.640;2023-02-28T05:11:15;18.42;;;11.85;;
5819;SDS011;2936;47.348;9.640;2023-02-28T05:13:43;18.13;;;11.88;;
5819;SDS011;2936;47.348;9.640;2023-02-28T05:16:11;18.02;;;12.43;;
5819;SDS011;2936;47.348;9.640;2023-02-28T05:18:40;17.13;;;11.00;;
5819;SDS011;2936;47.348;9.640;2023-02-28T05:21:15;20.65;;;11.65;;
5819;SDS011;2936;47.348;9.640;2023-02-28T05:23:48;14.55;;;10.35;;
5819;SDS011;2936;47.348;9.640;2023-02-28T05:26:16;11.73;;;10.35;;
5819;SDS011;2936;47.348;9.640;2023-02-28T05:28:43;17.35;;;11.32;;
5819;SDS011;2936;47.348;9.640;2023-02-28T05:31:11;13.82;;;10.88;;
5819;SDS011;2936;47.348;9.640;2023-02-28T05:33:40;22.73;;;11.95;;
5819;SDS011;2936;47.348;9.640;2023-02-28T05:36:07;17.52;;;11.93;;
5819;SDS011;2936;47.348;9.640;2023-02-28T05:38:35;22.13;;;11.07;;
5819;SDS011;2936;47.348;9.640;2023-02-28T05:41:04;22.02;;;11.65;;
5819;SDS011;2936;47.348;9.640;2023-02-28T05:43:32;22.02;;;11.15;;
5819;SDS011;2936;47.348;9.640;2023-02-28T05:46:01;15.30;;;11.73;;
5819;SDS011;2936;47.348;9.640;2023-02-28T05:48:28;15.25;;;11.80;;
5819;SDS011;2936;47.348;9.640;2023-02-28T05:50:58;22.20;;;12.65;;
5819;SDS011;2936;47.348;9.640;2023-02-28T05:53:25;22.40;;;12.52;;
5819;SDS011;2936;47.348;9.640;2023-02-28T05:55:53;20.23;;;12.75;;
5819;SDS011;2936;47.348;9.640;2023-02-28T05:58:20;17.65;;;12.07;;
5819;SDS011;2936;47.348;9.640;2023-02-28T06:00:49;28.23;;;13.23;;
5819;SDS011;2936;47.348;9.640;2023-02-28T06:03:16;24.10;;;14.25;;
5819;SDS011;2936;47.348;9.640;2023-02-28T06:05:43;27.65;;;15.23;;
5819;SDS011;2936;47.348;9.640;2023-02-28T06:08:12;29.05;;;14.35;;
5819;SDS011;2936;47.348;9.640;2023-02-28T06:10:39;27.48;;;14.35;;
5819;SDS011;2936;47.348;9.640;2023-02-28T06:13:07;20.42;;;15.20;;
5819;SDS011;2936;47.348;9.640;2023-02-28T06:15:34;18.17;;;13.75;;
5819;SDS011;2936;47.348;9.640;2023-02-28T06:18:02;23.58;;;15.73;;
5819;SDS011;2936;47.348;9.640;2023-02-28T06:20:29;20.65;;;13.88;;
5819;SDS011;2936;47.348;9.640;2023-02-28T06:22:57;25.10;;;13.15;;
5819;SDS011;2936;47.348;9.640;2023-02-28T06:25:26;17.38;;;12.68;;
5819;SDS011;2936;47.348;9.640;2023-02-28T06:27:54;30.95;;;13.63;;
5819;SDS011;2936;47.348;9.640;2023-02-28T06:30:22;15.13;;;11.98;;
5819;SDS011;2936;47.348;9.640;2023-02-28T06:32:51;18.17;;;12.38;;
5819;SDS011;2936;47.348;9.640;2023-02-28T06:35:19;19.27;;;11.85;;
5819;SDS011;2936;47.348;9.640;2023-02-28T06:37:46;18.52;;;12.45;;
5819;SDS011;2936;47.348;9.640;2023-02-28T06:40:14;14.52;;;11.40;;
5819;SDS011;2936;47.348;9.640;2023-02-28T06:42:43;22.48;;;13.35;;
5819;SDS011;2936;47.348;9.640;2023-02-28T06:45:10;21.30;;;13.50;;
5819;SDS011;2936;47.348;9.640;2023-02-28T06:47:38;25.10;;;13.50;;
5819;SDS011;2936;47.348;9.640;2023-02-28T06:52:45;18.40;;;12.35;;
5819;SDS011;2936;47.348;9.640;2023-02-28T06:55:12;18.92;;;12.80;;
5819;SDS011;2936;47.348;9.640;2023-02-28T06:57:40;16.95;;;12.68;;
5819;SDS011;2936;47.348;9.640;2023-02-28T07:00:10;16.02;;;11.93;;
5819;SDS011;2936;47.348;9.640;2023-02-28T07:02:37;35.65;;;13.40;;
5819;SDS011;2936;47.348;9.640;2023-02-28T07:05:05;19.77;;;12.27;;
5819;SDS011;2936;47.348;9.640;2023-02-28T07:07:34;20.08;;;12.93;;
5819;SDS011;2936;47.348;9.640;2023-02-28T07:10:03;19.77;;;12.60;;
5819;SDS011;2936;47.348;9.640;2023-02-28T07:12:31;16.80;;;11.95;;
5819;SDS011;2936;47.348;9.640;2023-02-28T07:15:04;26.30;;;13.82;;
5819;SDS011;2936;47.348;9.640;2023-02-28T07:17:35;21.90;;;12.57;;
5819;SDS011;2936;47.348;9.640;2023-02-28T07:20:06;21.30;;;12.80;;
5819;SDS011;2936;47.348;9.640;2023-02-28T07:22:36;26.88;;;12.10;;
5819;SDS011;2936;47.348;9.640;2023-02-28T07:25:04;25.35;;;12.40;;
5819;SDS011;2936;47.348;9.640;2023-02-28T07:30:15;17.90;;;13.00;;
5819;SDS011;2936;47.348;9.640;2023-02-28T07:32:45;16.75;;;11.70;;
5819;SDS011;2936;47.348;9.640;2023-02-28T07:35:12;15.82;;;10.98;;
5819;SDS011;2936;47.348;9.640;2023-02-28T07:37:40;17.20;;;11.75;;
5819;SDS011;2936;47.348;9.640;2023-02-28T07:40:08;17.98;;;13.48;;
5819;SDS011;2936;47.348;9.640;2023-02-28T07:42:37;27.42;;;13.18;;
5819;SDS011;2936;47.348;9.640;2023-02-28T07:45:06;16.38;;;11.90;;
5819;SDS011;2936;47.348;9.640;2023-02-28T07:47:36;24.10;;;12.20;;
5819;SDS011;2936;47.348;9.640;2023-02-28T07:50:05;23.52;;;12.43;;
5819;SDS011;2936;47.348;9.640;2023-02-28T07:52:33;23.85;;;14.65;;
5819;SDS011;2936;47.348;9.640;2023-02-28T07:55:00;21.30;;;12.63;;
5819;SDS011;2936;47.348;9.640;2023-02-28T07:57:28;27.83;;;12.30;;
5819;SDS011;2936;47.348;9.640;2023-02-28T07:59:55;31.60;;;14.63;;
5819;SDS011;2936;47.348;9.640;2023-02-28T08:02:22;17.30;;;12.93;;
5819;SDS011;2936;47.348;9.640;2023-02-28T08:04:50;18.77;;;12.52;;
5819;SDS011;2936;47.348;9.640;2023-02-28T08:07:18;26.13;;;12.68;;
5819;SDS011;2936;47.348;9.640;2023-02-28T08:09:46;24.13;;;12.88;;
5819;SDS011;2936;47.348;9.640;2023-02-28T08:12:15;23.15;;;12.82;;
5819;SDS011;2936;47.348;9.640;2023-02-28T08:14:43;26.70;;;13.50;;
5819;SDS011;2936;47.348;9.640;2023-02-28T08:17:10;24.60;;;12.48;;
5819;SDS011;2936;47.348;9.640;2023-02-28T08:19:38;18.48;;;12.82;;
5819;SDS011;2936;47.348;9.640;2023-02-28T08:22:05;21.75;;;12.32;;
5819;SDS011;2936;47.348;9.640;2023-02-28T08:24:34;16.55;;;12.88;;
5819;SDS011;2936;47.348;9.640;2023-02-28T08:27:01;17.42;;;12.52;;
5819;SDS011;2936;47.348;9.640;2023-02-28T08:29:29;25.58;;;14.23;;
5819;SDS011;2936;47.348;9.640;2023-02-28T08:31:56;22.83;;;13.90;;
5819;SDS011;2936;47.348;9.640;2023-02-28T08:34:24;21.23;;;13.52;;
5819;SDS011;2936;47.348;9.640;2023-02-28T08:36:51;19.15;;;13.30;;
5819;SDS011;2936;47.348;9.640;2023-02-28T08:39:18;20.35;;;12.65;;
5819;SDS011;2936;47.348;9.640;2023-02-28T08:41:47;18.83;;;13.60;;
5819;SDS011;2936;47.348;9.640;2023-02-28T08:44:14;18.52;;;13.32;;
5819;SDS011;2936;47.348;9.640;2023-02-28T08:46:42;16.70;;;12.18;;
5819;SDS011;2936;47.348;9.640;2023-02-28T08:49:09;20.35;;;13.25;;
5819;SDS011;2936;47.348;9.640;2023-02-28T08:51:38;17.20;;;12.90;;
5819;SDS011;2936;47.348;9.640;2023-02-28T08:54:05;14.02;;;12.20;;
5819;SDS011;2936;47.348;9.640;2023-02-28T08:56:33;18.70;;;13.20;;
5819;SDS011;2936;47.348;9.640;2023-02-28T08:59:02;19.63;;;13.05;;
5819;SDS011;2936;47.348;9.640;2023-02-28T09:01:30;17.58;;;11.70;;
5819;SDS011;2936;47.348;9.640;2023-02-28T09:03:58;17.05;;;11.85;;
5819;SDS011;2936;47.348;9.640;2023-02-28T09:06:27;15.65;;;11.57;;
5819;SDS011;2936;47.348;9.640;2023-02-28T09:08:55;14.95;;;11.38;;
5819;SDS011;2936;47.348;9.640;2023-02-28T09:11:24;17.73;;;11.60;;
5819;SDS011;2936;47.348;9.640;2023-02-28T09:13:52;21.23;;;12.05;;
5819;SDS011;2936;47.348;9.640;2023-02-28T09:16:21;17.17;;;12.00;;
5819;SDS011;2936;47.348;9.640;2023-02-28T09:18:49;14.18;;;11.02;;
5819;SDS011;2936;47.348;9.640;2023-02-28T09:21:17;17.08;;;11.52;;
5819;SDS011;2936;47.348;9.640;2023-02-28T09:23:45;16.20;;;12.23;;
5819;SDS011;2936;47.348;9.640;2023-02-28T09:26:14;18.63;;;11.88;;
5819;SDS011;2936;47.348;9.640;2023-02-28T09:28:42;17.38;;;12.05;;
5819;SDS011;2936;47.348;9.640;2023-02-28T09:31:13;17.85;;;12.85;;
5819;SDS011;2936;47.348;9.640;2023-02-28T09:33:44;18.60;;;12.68;;
5819;SDS011;2936;47.348;9.640;2023-02-28T09:36:12;17.83;;;12.90;;
5819;SDS011;2936;47.348;9.640;2023-02-28T09:38:39;19.25;;;11.73;;
5819;SDS011;2936;47.348;9.640;2023-02-28T09:41:10;16.77;;;11.63;;
5819;SDS011;2936;47.348;9.640;2023-02-28T09:43:39;18.90;;;12.00;;
5819;SDS011;2936;47.348;9.640;2023-02-28T09:46:08;14.60;;;11.77;;
5819;SDS011;2936;47.348;9.640;2023-02-28T09:48:39;15.55;;;11.77;;
5819;SDS011;2936;47.348;9.640;2023-02-28T09:51:14;14.25;;;11.50;;
5819;SDS011;2936;47.348;9.640;2023-02-28T09:53:42;26.90;;;12.13;;
5819;SDS011;2936;47.348;9.640;2023-02-28T09:56:10;15.32;;;11.60;;
5819;SDS011;2936;47.348;9.640;2023-02-28T09:58:39;19.50;;;12.13;;
5819;SDS011;2936;47.348;9.640;2023-02-28T10:01:09;23.35;;;13.48;;
5819;SDS011;2936;47.348;9.640;2023-02-28T10:03:39;21.55;;;11.73;;
5819;SDS011;2936;47.348;9.640;2023-02-28T10:06:09;15.00;;;10.88;;
5819;SDS011;2936;47.348;9.640;2023-02-28T10:08:42;19.27;;;11.45;;
5819;SDS011;2936;47.348;9.640;2023-02-28T10:11:14;16.80;;;12.30;;
5819;SDS011;2936;47.348;9.640;2023-02-28T10:13:46;17.45;;;12.98;;
5819;SDS011;2936;47.348;9.640;2023-02-28T10:16:20;18.33;;;12.85;;
5819;SDS011;2936;47.348;9.640;2023-02-28T10:18:50;19.60;;;12.40;;
5819;SDS011;2936;47.348;9.640;2023-02-28T10:21:21;17.67;;;12.90;;
5819;SDS011;2936;47.348;9.640;2023-02-28T10:23:50;18.83;;;13.05;;
5819;SDS011;2936;47.348;9.640;2023-02-28T10:26:19;17.13;;;12.98;;
5819;SDS011;2936;47.348;9.640;2023-02-28T10:28:48;18.88;;;13.23;;
5819;SDS011;2936;47.348;9.640;2023-02-28T10:31:18;16.88;;;13.57;;
5819;SDS011;2936;47.348;9.640;2023-02-28T10:33:46;16.20;;;11.85;;
5819;SDS011;2936;47.348;9.640;2023-02-28T10:36:15;21.70;;;14.07;;
5819;SDS011;2936;47.348;9.640;2023-02-28T10:38:43;20.17;;;14.90;;
5819;SDS011;2936;47.348;9.640;2023-02-28T10:41:13;19.70;;;13.32;;
5819;SDS011;2936;47.348;9.640;2023-02-28T10:43:41;22.75;;;12.52;;
5819;SDS011;2936;47.348;9.640;2023-02-28T10:46:11;24.85;;;13.05;;
5819;SDS011;2936;47.348;9.640;2023-02-28T10:48:40;17.70;;;13.38;;
5819;SDS011;2936;47.348;9.640;2023-02-28T10:51:09;22.55;;;13.25;;
5819;SDS011;2936;47.348;9.640;2023-02-28T10:53:38;16.70;;;12.40;;
5819;SDS011;2936;47.348;9.640;2023-02-28T10:56:18;21.73;;;14.88;;
5819;SDS011;2936;47.348;9.640;2023-02-28T10:58:51;18.85;;;13.60;;
5819;SDS011;2936;47.348;9.640;2023-02-28T11:01:19;18.38;;;13.68;;
5819;SDS011;2936;47.348;9.640;2023-02-28T11:03:46;32.22;;;13.82;;
5819;SDS011;2936;47.348;9.640;2023-02-28T11:06:16;24.10;;;14.10;;
5819;SDS011;2936;47.348;9.640;2023-02-28T11:08:45;19.08;;;13.27;;
5819;SDS011;2936;47.348;9.640;2023-02-28T11:11:13;23.80;;;14.90;;
5819;SDS011;2936;47.348;9.640;2023-02-28T11:13:43;19.70;;;13.60;;
5819;SDS011;2936;47.348;9.640;2023-02-28T11:16:12;20.13;;;14.02;;
5819;SDS011;2936;47.348;9.640;2023-02-28T11:18:41;23.05;;;14.68;;
5819;SDS011;2936;47.348;9.640;2023-02-28T11:21:11;20.00;;;13.15;;
5819;SDS011;2936;47.348;9.640;2023-02-28T11:23:42;18.00;;;13.82;;
5819;SDS011;2936;47.348;9.640;2023-02-28T11:26:10;21.42;;;14.82;;
5819;SDS011;2936;47.348;9.640;2023-02-28T11:28:38;22.35;;;13.57;;
5819;SDS011;2936;47.348;9.640;2023-02-28T11:31:14;23.30;;;14.25;;
5819;SDS011;2936;47.348;9.640;2023-02-28T11:33:44;21.45;;;14.77;;
5819;SDS011;2936;47.348;9.640;2023-02-28T11:36:14;21.77;;;15.27;;
5819;SDS011;2936;47.348;9.640;2023-02-28T11:38:42;18.33;;;13.93;;
5819;SDS011;2936;47.348;9.640;2023-02-28T11:41:13;22.45;;;14.90;;
5819;SDS011;2936;47.348;9.640;2023-02-28T11:43:49;21.25;;;14.07;;
5819;SDS011;2936;47.348;9.640;2023-02-28T11:46:24;20.02;;;13.02;;
5819;SDS011;2936;47.348;9.640;2023-02-28T11:48:57;20.42;;;14.07;;
5819;SDS011;2936;47.348;9.640;2023-02-28T11:51:27;20.27;;;14.00;;
5819;SDS011;2936;47.348;9.640;2023-02-28T11:54:03;23.35;;;14.10;;
5819;SDS011;2936;47.348;9.640;2023-02-28T11:56:36;21.30;;;14.35;;
5819;SDS011;2936;47.348;9.640;2023-02-28T11:59:09;18.80;;;13.55;;
5819;SDS011;2936;47.348;9.640;2023-02-28T12:01:51;19.65;;;13.93;;
5819;SDS011;2936;47.348;9.640;2023-02-28T12:04:27;22.95;;;14.40;;
5819;SDS011;2936;47.348;9.640;2023-02-28T12:06:57;21.40;;;14.35;;
5819;SDS011;2936;47.348;9.640;2023-02-28T12:12:17;21.05;;;14.55;;
5819;SDS011;2936;47.348;9.640;2023-02-28T12:17:50;25.83;;;15.30;;
5819;SDS011;2936;47.348;9.640;2023-02-28T12:20:22;19.10;;;14.13;;
5819;SDS011;2936;47.348;9.640;2023-02-28T12:22:53;18.45;;;13.38;;
5819;SDS011;2936;47.348;9.640;2023-02-28T12:25:33;17.98;;;12.60;;
5819;SDS011;2936;47.348;9.640;2023-02-28T12:28:09;20.45;;;13.98;;
5819;SDS011;2936;47.348;9.640;2023-02-28T12:30:38;27.40;;;14.43;;
5819;SDS011;2936;47.348;9.640;2023-02-28T12:33:09;20.58;;;14.40;;
5819;SDS011;2936;47.348;9.640;2023-02-28T12:35:40;23.38;;;15.10;;
5819;SDS011;2936;47.348;9.640;2023-02-28T12:38:09;21.25;;;15.07;;
5819;SDS011;2936;47.348;9.640;2023-02-28T12:40:43;26.65;;;14.95;;
5819;SDS011;2936;47.348;9.640;2023-02-28T12:43:12;21.38;;;13.30;;
5819;SDS011;2936;47.348;9.640;2023-02-28T12:45:42;17.30;;;12.88;;
5819;SDS011;2936;47.348;9.640;2023-02-28T12:48:17;18.17;;;13.00;;
5819;SDS011;2936;47.348;9.640;2023-02-28T12:50:45;19.08;;;13.57;;
5819;SDS011;2936;47.348;9.640;2023-02-28T12:53:15;27.30;;;14.23;;
5819;SDS011;2936;47.348;9.640;2023-02-28T12:55:45;20.73;;;14.75;;
5819;SDS011;2936;47.348;9.640;2023-02-28T12:58:17;18.67;;;13.38;;
5819;SDS011;2936;47.348;9.640;2023-02-28T13:00:49;17.70;;;12.63;;
5819;SDS011;2936;47.348;9.640;2023-02-28T13:03:28;18.35;;;13.35;;
5819;SDS011;2936;47.348;9.640;2023-02-28T13:09:03;19.92;;;14.45;;
5819;SDS011;2936;47.348;9.640;2023-02-28T13:11:32;16.55;;;12.65;;
5819;SDS011;2936;47.348;9.640;2023-02-28T13:14:01;18.92;;;14.23;;
5819;SDS011;2936;47.348;9.640;2023-02-28T13:19:17;22.13;;;13.10;;
5819;SDS011;2936;47.348;9.640;2023-02-28T13:21:45;14.73;;;11.57;;
5819;SDS011;2936;47.348;9.640;2023-02-28T13:27:20;16.10;;;12.45;;
5819;SDS011;2936;47.348;9.640;2023-02-28T13:29:50;18.42;;;13.90;;
5819;SDS011;2936;47.348;9.640;2023-02-28T13:35:15;19.35;;;13.20;;
5819;SDS011;2936;47.348;9.640;2023-02-28T13:38:12;21.48;;;13.43;;
5819;SDS011;2936;47.348;9.640;2023-02-28T13:40:40;21.58;;;14.43;;
5819;SDS011;2936;47.348;9.640;2023-02-28T13:43:09;18.13;;;13.07;;
5819;SDS011;2936;47.348;9.640;2023-02-28T13:45:37;22.95;;;13.73;;
5819;SDS011;2936;47.348;9.640;2023-02-28T13:48:15;20.08;;;13.43;;
5819;SDS011;2936;47.348;9.640;2023-02-28T13:50:45;16.55;;;12.68;;
5819;SDS011;2936;47.348;9.640;2023-02-28T13:56:23;18.75;;;13.63;;
5819;SDS011;2936;47.348;9.640;2023-02-28T13:58:57;19.67;;;14.23;;
5819;SDS011;2936;47.348;9.640;2023-02-28T14:01:32;18.60;;;13.90;;
5819;SDS011;2936;47.348;9.640;2023-02-28T14:04:12;24.98;;;14.50;;
5819;SDS011;2936;47.348;9.640;2023-02-28T14:06:47;20.70;;;14.77;;
5819;SDS011;2936;47.348;9.640;2023-02-28T14:09:17;18.05;;;14.18;;
5819;SDS011;2936;47.348;9.640;2023-02-28T14:11:46;18.27;;;13.35;;
5819;SDS011;2936;47.348;9.640;2023-02-28T14:16:56;22.48;;;13.75;;
5819;SDS011;2936;47.348;9.640;2023-02-28T14:19:28;23.60;;;14.60;;
5819;SDS011;2936;47.348;9.640;2023-02-28T14:22:02;19.92;;;13.50;;
5819;SDS011;2936;47.348;9.640;2023-02-28T14:24:41;21.50;;;13.23;;
5819;SDS011;2936;47.348;9.640;2023-02-28T14:27:26;20.10;;;14.75;;
5819;SDS011;2936;47.348;9.640;2023-02-28T14:30:04;17.25;;;13.70;;
5819;SDS011;2936;47.348;9.640;2023-02-28T14:32:41;16.15;;;12.73;;
5819;SDS011;2936;47.348;9.640;2023-02-28T14:35:15;26.05;;;14.07;;
5819;SDS011;2936;47.348;9.640;2023-02-28T14:37:46;24.75;;;15.20;;
5819;SDS011;2936;47.348;9.640;2023-02-28T14:40:14;21.80;;;13.93;;
5819;SDS011;2936;47.348;9.640;2023-02-28T14:42:46;17.10;;;13.50;;
5819;SDS011;2936;47.348;9.640;2023-02-28T14:45:17;20.60;;;14.02;;
5819;SDS011;2936;47.348;9.640;2023-02-28T14:47:45;17.80;;;14.70;;
5819;SDS011;2936;47.348;9.640;2023-02-28T14:50:17;17.92;;;13.27;;
5819;SDS011;2936;47.348;9.640;2023-02-28T14:52:45;17.77;;;12.35;;
5819;SDS011;2936;47.348;9.640;2023-02-28T14:55:15;20.40;;;14.95;;
5819;SDS011;2936;47.348;9.640;2023-02-28T14:57:50;18.73;;;13.38;;
5819;SDS011;2936;47.348;9.640;2023-02-28T15:00:21;18.05;;;14.63;;
5819;SDS011;2936;47.348;9.640;2023-02-28T15:02:48;25.23;;;15.65;;
5819;SDS011;2936;47.348;9.640;2023-02-28T15:05:26;20.58;;;14.35;;
5819;SDS011;2936;47.348;9.640;2023-02-28T15:08:09;23.63;;;14.48;;
5819;SDS011;2936;47.348;9.640;2023-02-28T15:10:39;21.80;;;15.05;;
5819;SDS011;2936;47.348;9.640;2023-02-28T15:13:08;22.10;;;14.68;;
5819;SDS011;2936;47.348;9.640;2023-02-28T15:15:43;20.45;;;15.70;;
5819;SDS011;2936;47.348;9.640;2023-02-28T15:18:14;23.48;;;14.85;;
5819;SDS011;2936;47.348;9.640;2023-02-28T15:20:42;21.95;;;14.30;;
5819;SDS011;2936;47.348;9.640;2023-02-28T15:23:11;20.65;;;14.52;;
5819;SDS011;2936;47.348;9.640;2023-02-28T15:25:41;21.77;;;14.63;;
5819;SDS011;2936;47.348;9.640;2023-02-28T15:28:11;21.45;;;14.32;;
5819;SDS011;2936;47.348;9.640;2023-02-28T15:30:49;25.58;;;14.52;;
5819;SDS011;2936;47.348;9.640;2023-02-28T15:33:19;27.40;;;16.30;;
5819;SDS011;2936;47.348;9.640;2023-02-28T15:35:47;21.67;;;15.10;;
5819;SDS011;2936;47.348;9.640;2023-02-28T15:38:15;28.65;;;16.70;;
5819;SDS011;2936;47.348;9.640;2023-02-28T15:40:45;25.65;;;15.63;;
5819;SDS011;2936;47.348;9.640;2023-02-28T15:43:26;26.92;;;17.00;;
5819;SDS011;2936;47.348;9.640;2023-02-28T15:45:55;26.92;;;16.35;;
5819;SDS011;2936;47.348;9.640;2023-02-28T15:48:24;42.10;;;17.48;;